Time;durP1;ratioP1;P1;durP2;ratioP2;P2;SDS_P1;SDS_P2;PMS_P1;PMS_P2;Temp;Humidity;BMP_temperature;BMP_pressure;BME280_temperature;BME280_humidity;BME280_pressure;Samples;Min_cycle;Max_cycle;Signal;HPM_P1;HPM_P2
2024/01/17 00:01:59;;;;;;;113.47;50.93;;;-5.20;99.90;;;;;;4945895;29;20183;-76
2024/01/17 00:04:25;;;;;;;34.07;19.63;;;-5.30;99.90;;;;;;4946864;29;20178;-76
2024/01/17 00:06:51;;;;;;;28.63;15.37;;;-5.40;99.90;;;;;;4949917;29;20285;-76
2024/01/17 00:09:18;;;;;;;19.43;11.30;;;-5.50;99.90;;;;;;4951424;29;20174;-76
2024/01/17 00:11:44;;;;;;;17.90;11.07;;;-5.40;99.90;;;;;;4949597;29;20182;-76
2024/01/17 00:14:10;;;;;;;16.10;11.97;;;-5.50;99.90;;;;;;4949631;29;20182;-76
2024/01/17 00:16:37;;;;;;;20.80;12.60;;;-5.50;99.90;;;;;;4949844;29;20305;-76
2024/01/17 00:19:03;;;;;;;26.53;17.73;;;-5.60;99.90;;;;;;4950648;29;20190;-76
2024/01/17 00:21:28;;;;;;;22.13;15.33;;;-5.60;99.90;;;;;;4949651;29;20197;-76
2024/01/17 00:23:54;;;;;;;25.43;18.83;;;-5.50;99.90;;;;;;4949079;29;20206;-74
2024/01/17 00:26:20;;;;;;;22.13;15.53;;;-5.50;99.90;;;;;;4938374;29;20210;-74
2024/01/17 00:28:46;;;;;;;20.90;14.47;;;-5.40;99.90;;;;;;4938501;29;20182;-74
2024/01/17 00:31:12;;;;;;;23.53;15.00;;;-5.60;99.90;;;;;;4939352;29;20241;-74
2024/01/17 00:33:38;;;;;;;25.70;16.93;;;-5.60;99.90;;;;;;4938033;29;20190;-74
2024/01/17 00:36:04;;;;;;;19.63;11.73;;;-5.60;99.90;;;;;;4938212;29;20214;-74
2024/01/17 00:38:31;;;;;;;14.90;9.53;;;-5.60;99.90;;;;;;4938052;29;20178;-74
2024/01/17 00:40:57;;;;;;;13.13;8.90;;;-5.50;99.90;;;;;;4939975;29;20190;-74
2024/01/17 00:43:23;;;;;;;23.17;13.03;;;-5.50;99.90;;;;;;4947985;29;20189;-75
2024/01/17 00:45:49;;;;;;;20.60;13.50;;;-5.60;99.90;;;;;;4949294;29;20222;-75
2024/01/17 00:48:15;;;;;;;16.63;11.60;;;-5.60;99.90;;;;;;4948984;29;20178;-75
2024/01/17 00:50:41;;;;;;;11.90;7.73;;;-5.50;99.90;;;;;;4949765;29;20238;-75
2024/01/17 00:53:07;;;;;;;11.53;7.10;;;-5.50;99.90;;;;;;4948762;29;20208;-75
2024/01/17 00:55:33;;;;;;;17.67;8.90;;;-5.50;99.90;;;;;;4948602;29;20221;-75
2024/01/17 00:57:59;;;;;;;15.23;8.53;;;-5.50;99.90;;;;;;4948920;29;20206;-76
2024/01/17 01:00:26;;;;;;;16.53;8.10;;;-5.50;99.90;;;;;;4942236;29;20183;-74
2024/01/17 01:02:52;;;;;;;25.27;16.33;;;-5.50;99.90;;;;;;4939178;29;20538;-74
2024/01/17 01:05:17;;;;;;;58.97;41.30;;;-5.50;99.90;;;;;;4937817;29;20183;-74
2024/01/17 01:07:43;;;;;;;33.10;22.03;;;-5.50;99.90;;;;;;4937722;29;20221;-74
2024/01/17 01:10:09;;;;;;;20.00;12.90;;;-5.50;99.90;;;;;;4937473;29;20613;-74
2024/01/17 01:12:34;;;;;;;23.83;15.97;;;-5.60;99.90;;;;;;4937711;29;20278;-74
2024/01/17 01:15:00;;;;;;;25.27;15.77;;;-5.60;99.90;;;;;;4937548;29;20234;-73
2024/01/17 01:17:25;;;;;;;16.83;12.63;;;-5.60;99.90;;;;;;4936147;29;20277;-74
2024/01/17 01:19:51;;;;;;;17.70;12.67;;;-5.50;99.90;;;;;;4937239;29;20186;-74
2024/01/17 01:22:16;;;;;;;18.07;10.17;;;-5.50;99.90;;;;;;4937942;29;20189;-74
2024/01/17 01:24:42;;;;;;;17.80;10.83;;;-5.50;99.90;;;;;;4938930;29;20245;-74
2024/01/17 01:27:07;;;;;;;15.27;9.40;;;-5.40;99.90;;;;;;4938182;29;20285;-74
2024/01/17 01:29:33;;;;;;;12.17;8.30;;;-5.40;99.90;;;;;;4937192;29;20189;-74
2024/01/17 01:31:59;;;;;;;11.30;7.30;;;-5.40;99.90;;;;;;4937507;29;20197;-74
2024/01/17 01:34:24;;;;;;;13.70;7.33;;;-5.40;99.90;;;;;;4938256;29;20225;-73
2024/01/17 01:36:50;;;;;;;18.60;8.40;;;-5.40;99.90;;;;;;4936786;29;20218;-74
2024/01/17 01:39:15;;;;;;;12.47;7.83;;;-5.40;99.90;;;;;;4938489;29;20174;-74
2024/01/17 01:41:41;;;;;;;20.70;8.47;;;-5.50;99.90;;;;;;4938013;29;20175;-74
2024/01/17 01:44:06;;;;;;;12.37;8.50;;;-5.50;99.90;;;;;;4937743;29;20202;-73
2024/01/17 01:46:33;;;;;;;14.30;8.73;;;-5.50;99.90;;;;;;4936706;29;20296;-74
2024/01/17 01:48:58;;;;;;;15.27;9.27;;;-5.50;99.90;;;;;;4937646;29;20210;-74
2024/01/17 01:51:27;;;;;;;14.13;8.07;;;-5.60;99.90;;;;;;4937531;29;20214;-74
2024/01/17 01:54:00;;;;;;;13.80;7.63;;;-5.60;99.90;;;;;;4936630;29;20238;-73
